createdAt,value
2018-11-04T00:01:09.539Z,26.50
2018-11-04T00:03:37.909Z,27.73
2018-11-04T00:06:06.293Z,24.90
2018-11-04T00:08:40.932Z,25.23
2018-11-04T00:11:11.150Z,31.95
2018-11-04T00:13:39.689Z,26.42
2018-11-04T00:16:08.157Z,26.85
2018-11-04T00:18:36.576Z,25.30
2018-11-04T00:21:05.314Z,23.27
2018-11-04T00:23:33.842Z,40.25
2018-11-04T00:26:02.321Z,35.25
2018-11-04T00:28:30.902Z,25.37
2018-11-04T00:30:59.325Z,27.02
2018-11-04T00:33:31.906Z,27.00
2018-11-04T00:36:00.385Z,27.32
2018-11-04T00:38:28.765Z,28.10
2018-11-04T00:40:57.249Z,28.23
2018-11-04T00:43:25.528Z,25.65
2018-11-04T00:45:53.931Z,31.00
2018-11-04T00:48:22.943Z,28.10
2018-11-04T00:50:52.941Z,27.42
2018-11-04T00:53:22.479Z,26.70
2018-11-04T00:55:54.169Z,24.12
2018-11-04T00:58:23.680Z,22.15
2018-11-04T01:00:54.039Z,24.52
2018-11-04T01:03:23.192Z,26.75
2018-11-04T01:06:07.867Z,25.05
2018-11-04T01:11:35.327Z,22.13
2018-11-04T01:14:09.201Z,22.50
2018-11-04T01:16:39.322Z,28.00
2018-11-04T01:19:11.718Z,21.87
2018-11-04T01:22:12.494Z,28.35
2018-11-04T01:30:32.901Z,21.65
2018-11-04T02:35:24.842Z,24.45
2018-11-04T02:45:04.003Z,29.12
2018-11-04T02:47:55.144Z,33.53
2018-11-04T02:50:46.839Z,24.10
2018-11-04T03:07:53.080Z,25.37
2018-11-04T03:10:36.396Z,23.73
2018-11-04T03:13:27.118Z,25.75
2018-11-04T03:16:06.714Z,24.30
2018-11-04T03:18:37.540Z,24.35
2018-11-04T03:21:13.701Z,28.90
2018-11-04T03:23:46.967Z,22.58
2018-11-04T03:26:18.852Z,26.02
2018-11-04T03:29:05.698Z,23.50
2018-11-04T03:34:49.696Z,24.30
2018-11-04T03:37:19.560Z,28.85
2018-11-04T03:42:45.302Z,26.35
2018-11-04T03:45:22.014Z,34.45
2018-11-04T03:47:58.681Z,33.00
2018-11-04T03:50:31.530Z,27.00
2018-11-04T03:53:09.936Z,28.20
2018-11-04T03:55:44.491Z,29.67
2018-11-04T03:58:13.900Z,30.97
2018-11-04T04:00:45.162Z,33.65
2018-11-04T04:03:19.165Z,31.50
2018-11-04T04:05:50.146Z,26.97
2018-11-04T04:08:20.414Z,25.40
2018-11-04T04:11:01.615Z,24.82
2018-11-04T04:13:35.794Z,29.67
2018-11-04T04:16:04.649Z,23.75
2018-11-04T04:18:33.462Z,23.25
2018-11-04T04:21:08.781Z,25.30
2018-11-04T04:23:40.447Z,26.35
2018-11-04T04:26:10.745Z,24.00
2018-11-04T04:28:40.351Z,30.48
2018-11-04T04:31:16.858Z,30.55
2018-11-04T04:33:47.512Z,24.43
2018-11-04T04:36:17.451Z,22.77
2018-11-04T04:38:46.623Z,25.77
2018-11-04T04:41:15.642Z,23.42
2018-11-04T04:43:44.559Z,27.05
2018-11-04T04:46:13.292Z,27.77
2018-11-04T04:48:44.184Z,27.67
2018-11-04T04:51:12.591Z,24.70
2018-11-04T04:53:41.589Z,24.18
2018-11-04T04:56:10.221Z,26.55
2018-11-04T04:58:38.926Z,26.12
2018-11-04T05:01:07.403Z,20.65
2018-11-04T05:03:39.605Z,26.12
2018-11-04T05:06:18.608Z,24.10
2018-11-04T05:08:52.846Z,27.90
2018-11-04T05:11:22.364Z,27.50
2018-11-04T05:13:51.723Z,24.05
2018-11-04T05:16:20.829Z,24.10
2018-11-04T05:21:54.893Z,26.82
2018-11-04T05:24:23.726Z,24.67
2018-11-04T05:26:52.487Z,22.07
2018-11-04T05:32:45.304Z,24.12
2018-11-04T05:41:43.144Z,25.37
2018-11-04T05:49:52.118Z,25.32
2018-11-04T05:52:26.844Z,26.52
2018-11-04T05:54:59.172Z,27.20
2018-11-04T05:57:31.954Z,28.55
2018-11-04T06:00:01.158Z,32.33
2018-11-04T06:02:29.482Z,34.83
2018-11-04T06:04:57.751Z,26.90
2018-11-04T06:07:25.982Z,31.27
2018-11-04T06:09:54.776Z,28.92
2018-11-04T06:12:28.287Z,26.23
2018-11-04T06:15:01.909Z,24.80
2018-11-04T06:17:30.968Z,29.23
2018-11-04T06:19:59.960Z,26.97
2018-11-04T06:22:28.815Z,26.87
2018-11-04T06:24:58.856Z,25.23
2018-11-04T06:27:38.093Z,35.15
2018-11-04T06:30:17.791Z,29.42
2018-11-04T06:32:48.102Z,26.73
2018-11-04T06:37:53.799Z,31.80
2018-11-04T06:40:23.220Z,27.15
2018-11-04T06:42:52.456Z,35.38
2018-11-04T06:45:21.875Z,29.50
2018-11-04T06:47:50.614Z,32.75
2018-11-04T06:50:19.282Z,30.88
2018-11-04T06:52:48.024Z,27.00
2018-11-04T06:55:17.207Z,26.75
2018-11-04T06:57:46.130Z,30.35
2018-11-04T07:00:15.281Z,24.67
2018-11-04T07:02:44.037Z,24.05
2018-11-04T07:05:14.378Z,27.70
2018-11-04T07:07:43.352Z,21.17
2018-11-04T07:10:13.830Z,25.60
2018-11-04T07:12:42.175Z,25.50
2018-11-04T07:15:10.630Z,22.85
2018-11-04T07:17:42.834Z,23.65
2018-11-04T07:20:43.630Z,25.82
2018-11-04T07:23:16.864Z,22.00
2018-11-04T07:25:48.489Z,26.35
2018-11-04T07:28:17.117Z,23.75
2018-11-04T07:30:50.916Z,32.55
2018-11-04T07:33:19.774Z,24.72
2018-11-04T07:35:49.029Z,24.80
2018-11-04T07:38:19.891Z,22.52
2018-11-04T07:40:53.492Z,18.77
2018-11-04T07:43:22.934Z,21.77
2018-11-04T07:48:45.653Z,20.43
2018-11-04T07:51:17.154Z,19.27
2018-11-04T07:53:47.030Z,23.32
2018-11-04T07:56:20.976Z,25.85
2018-11-04T07:58:50.585Z,22.42
2018-11-04T08:01:22.858Z,24.30
2018-11-04T08:03:52.508Z,21.07
2018-11-04T08:06:42.571Z,21.15
2018-11-04T08:09:12.845Z,22.02
2018-11-04T08:36:03.412Z,37.73
2018-11-04T08:38:32.770Z,36.88
2018-11-04T08:41:01.291Z,29.37
2018-11-04T08:43:29.878Z,40.98
2018-11-04T08:45:58.442Z,35.20
2018-11-04T08:48:26.641Z,37.90
2018-11-04T08:50:54.874Z,38.25
2018-11-04T08:53:23.115Z,37.28
2018-11-04T08:55:51.412Z,36.83
2018-11-04T08:58:19.640Z,36.75
2018-11-04T09:00:48.213Z,46.83
2018-11-04T09:03:16.460Z,39.75
2018-11-04T09:05:44.806Z,41.53
2018-11-04T09:08:14.233Z,48.40
2018-11-04T09:10:42.652Z,40.65
2018-11-04T09:13:12.203Z,40.33
2018-11-04T09:15:47.240Z,50.58
2018-11-04T09:18:15.575Z,43.70
2018-11-04T09:20:43.942Z,41.20
2018-11-04T09:23:12.449Z,46.33
2018-11-04T09:25:40.975Z,47.00
2018-11-04T09:28:09.633Z,47.60
2018-11-04T09:30:38.443Z,46.53
2018-11-04T09:33:06.980Z,48.05
2018-11-04T09:35:35.872Z,54.93
2018-11-04T09:38:04.222Z,50.03
2018-11-04T09:40:38.115Z,50.83
2018-11-04T09:43:06.652Z,47.50
2018-11-04T09:45:35.208Z,51.28
2018-11-04T09:48:04.289Z,53.33
2018-11-04T09:50:33.071Z,60.73
2018-11-04T09:53:02.099Z,57.03
2018-11-04T09:55:31.064Z,59.10
2018-11-04T09:58:03.576Z,47.90
2018-11-04T10:00:37.599Z,48.58
2018-11-04T10:03:06.842Z,58.68
2018-11-04T10:05:39.705Z,60.58
2018-11-04T10:08:08.572Z,63.90
2018-11-04T10:10:38.839Z,57.70
2018-11-04T10:13:08.902Z,67.27
2018-11-04T10:15:39.010Z,53.70
2018-11-04T10:18:09.140Z,58.85
2018-11-04T10:20:39.401Z,58.83
2018-11-04T10:23:19.685Z,56.55
2018-11-04T10:25:49.750Z,54.35
2018-11-04T10:28:24.292Z,51.50
2018-11-04T10:31:01.996Z,48.80
2018-11-04T10:33:35.679Z,57.55
2018-11-04T10:36:13.442Z,52.20
2018-11-04T10:38:53.171Z,49.63
2018-11-04T10:41:28.540Z,57.75
2018-11-04T10:43:57.770Z,58.95
2018-11-04T10:46:54.587Z,47.75
2018-11-04T10:49:47.915Z,49.58
2018-11-04T11:05:42.133Z,45.95
2018-11-04T11:08:16.608Z,37.80
2018-11-04T11:10:45.900Z,55.45
2018-11-04T11:13:15.227Z,43.05
2018-11-04T11:15:43.520Z,48.85
2018-11-04T11:18:11.964Z,46.55
2018-11-04T11:20:40.315Z,57.30
2018-11-04T11:23:08.722Z,44.50
2018-11-04T11:25:36.884Z,47.93
2018-11-04T11:28:08.951Z,39.50
2018-11-04T11:30:37.289Z,55.40
2018-11-04T11:33:05.796Z,46.13
2018-11-04T11:35:34.098Z,51.83
2018-11-04T11:38:02.371Z,45.92
2018-11-04T11:40:32.057Z,51.13
2018-11-04T11:43:04.318Z,49.95
2018-11-04T11:45:33.403Z,48.15
2018-11-04T11:48:01.708Z,50.70
2018-11-04T11:50:30.287Z,45.28
2018-11-04T11:52:59.160Z,50.38
2018-11-04T11:55:27.386Z,52.00
2018-11-04T11:57:55.901Z,45.35
2018-11-04T12:00:24.497Z,42.80
2018-11-04T12:02:58.428Z,43.10
2018-11-04T12:05:26.810Z,50.50
2018-11-04T12:07:55.426Z,42.90
2018-11-04T12:10:24.610Z,43.35
2018-11-04T12:12:53.180Z,44.90
2018-11-04T12:15:33.768Z,45.23
2018-11-04T12:18:02.573Z,44.00
2018-11-04T12:20:31.533Z,46.35
2018-11-04T12:23:00.369Z,42.88
2018-11-04T12:25:29.273Z,50.25
2018-11-04T12:27:58.038Z,43.28
2018-11-04T12:30:26.463Z,43.75
2018-11-04T12:32:54.883Z,44.05
2018-11-04T12:35:24.320Z,41.88
2018-11-04T12:37:52.797Z,41.13
2018-11-04T12:40:21.735Z,45.63
2018-11-04T12:42:50.876Z,43.38
2018-11-04T12:45:19.110Z,42.60
2018-11-04T12:47:47.549Z,39.90
2018-11-04T12:50:15.878Z,46.33
2018-11-04T12:52:44.313Z,49.50
2018-11-04T12:55:12.690Z,42.70
2018-11-04T12:57:40.986Z,45.03
2018-11-04T13:00:11.495Z,43.48
2018-11-04T13:02:39.833Z,45.98
2018-11-04T13:05:09.191Z,46.70
2018-11-04T13:07:37.512Z,45.48
2018-11-04T13:10:07.520Z,47.80
2018-11-04T13:12:36.426Z,44.53
2018-11-04T13:15:05.183Z,48.02
2018-11-04T13:17:33.706Z,42.23
2018-11-04T13:20:02.224Z,47.48
2018-11-04T13:22:30.636Z,47.03
2018-11-04T13:24:58.966Z,43.45
2018-11-04T13:27:27.301Z,44.88
2018-11-04T13:29:55.530Z,47.93
2018-11-04T13:32:24.510Z,49.40
2018-11-04T13:34:52.905Z,45.10
2018-11-04T13:37:21.189Z,37.35
2018-11-04T13:39:49.448Z,39.40
2018-11-04T13:42:17.969Z,41.73
2018-11-04T13:44:46.370Z,49.55
2018-11-04T13:47:14.583Z,45.40
2018-11-04T13:49:42.859Z,45.85
2018-11-04T13:52:11.120Z,43.95
2018-11-04T13:54:39.619Z,37.90
2018-11-04T13:57:07.956Z,40.08
2018-11-04T13:59:36.625Z,45.25
2018-11-04T14:02:05.000Z,36.15
2018-11-04T14:04:33.234Z,44.85
2018-11-04T14:07:01.457Z,42.33
2018-11-04T14:09:29.686Z,40.92
2018-11-04T14:11:58.104Z,46.02
2018-11-04T14:14:27.529Z,42.45
2018-11-04T14:16:55.740Z,47.38
2018-11-04T14:19:24.034Z,47.27
2018-11-04T14:21:52.250Z,46.48
2018-11-04T14:24:20.664Z,43.83
2018-11-04T14:26:48.946Z,44.58
2018-11-04T14:29:17.623Z,45.58
2018-11-04T14:31:45.900Z,43.35
2018-11-04T14:34:14.220Z,42.70
2018-11-04T14:36:42.776Z,40.58
2018-11-04T14:39:11.513Z,45.43
2018-11-04T14:41:39.831Z,45.25
2018-11-04T14:44:08.251Z,43.68
2018-11-04T14:46:36.667Z,50.75
2018-11-04T14:49:05.121Z,43.17
2018-11-04T14:51:33.467Z,45.95
2018-11-04T14:54:01.789Z,50.20
2018-11-04T14:56:35.315Z,40.60
2018-11-04T14:59:04.113Z,44.90
2018-11-04T15:01:32.436Z,50.58
2018-11-04T15:04:02.019Z,47.08
2018-11-04T15:06:30.354Z,44.77
2018-11-04T15:08:58.621Z,50.58
2018-11-04T15:11:27.078Z,50.48
2018-11-04T15:13:57.281Z,48.83
2018-11-04T15:16:27.886Z,47.90
2018-11-04T15:18:56.404Z,51.15
2018-11-04T15:21:33.153Z,49.88
2018-11-04T15:24:01.706Z,49.85
2018-11-04T15:26:29.982Z,55.55
2018-11-04T15:28:58.314Z,50.15
2018-11-04T15:31:27.703Z,51.48
2018-11-04T15:33:56.807Z,47.55
2018-11-04T15:36:26.466Z,51.48
2018-11-04T15:38:55.201Z,52.88
2018-11-04T15:41:25.061Z,48.85
2018-11-04T15:43:53.432Z,52.23
2018-11-04T15:46:21.682Z,48.40
2018-11-04T15:48:49.902Z,50.58
2018-11-04T15:51:18.133Z,45.70
2018-11-04T15:53:46.475Z,50.75
2018-11-04T15:56:15.703Z,52.30
2018-11-04T15:58:44.929Z,53.48
2018-11-04T16:01:13.185Z,44.13
2018-11-04T16:03:41.879Z,47.62
2018-11-04T16:06:10.150Z,48.35
2018-11-04T16:08:38.467Z,47.50
2018-11-04T16:11:06.736Z,46.30
2018-11-04T16:13:35.239Z,48.50
2018-11-04T16:16:03.720Z,48.75
2018-11-04T16:18:32.362Z,49.88
2018-11-04T16:21:01.352Z,41.75
2018-11-04T16:23:29.676Z,41.63
2018-11-04T16:25:57.992Z,45.88
2018-11-04T16:28:26.466Z,45.35
2018-11-04T16:30:58.740Z,47.08
2018-11-04T16:33:27.109Z,47.15
2018-11-04T16:35:55.509Z,46.90
2018-11-04T16:38:23.732Z,54.27
2018-11-04T16:40:52.321Z,47.70
2018-11-04T16:43:20.698Z,52.48
2018-11-04T16:45:51.240Z,54.98
2018-11-04T16:48:20.560Z,52.90
2018-11-04T16:50:49.077Z,48.83
2018-11-04T16:53:18.175Z,57.70
2018-11-04T16:55:46.531Z,50.75
2018-11-04T16:58:14.908Z,56.65
2018-11-04T17:00:43.443Z,54.95
2018-11-04T17:03:11.909Z,52.93
2018-11-04T17:05:41.515Z,52.55
2018-11-04T17:08:10.052Z,52.75
2018-11-04T17:10:41.249Z,59.45
2018-11-04T17:13:10.997Z,59.88
2018-11-04T17:15:40.278Z,62.85
2018-11-04T17:18:10.203Z,55.78
2018-11-04T17:20:41.580Z,58.73
2018-11-04T17:23:11.047Z,56.83
2018-11-04T17:25:49.481Z,55.40
2018-11-04T17:28:18.630Z,59.38
2018-11-04T17:30:49.737Z,61.88
2018-11-04T17:33:18.804Z,54.13
2018-11-04T17:35:50.295Z,59.70
2018-11-04T17:38:41.625Z,65.52
2018-11-04T17:41:10.253Z,64.15
2018-11-04T17:43:39.820Z,62.27
2018-11-04T17:46:10.162Z,66.42
2018-11-04T17:48:47.283Z,66.37
2018-11-04T17:51:20.208Z,75.12
2018-11-04T17:53:49.985Z,66.67
2018-11-04T17:56:26.029Z,66.47
2018-11-04T17:59:06.802Z,81.32
2018-11-04T18:01:41.119Z,72.53
2018-11-04T18:04:09.580Z,73.52
2018-11-04T18:06:38.622Z,68.02
2018-11-04T18:09:08.200Z,70.22
2018-11-04T18:11:39.438Z,71.22
2018-11-04T18:14:08.536Z,68.52
2018-11-04T18:16:38.394Z,62.95
2018-11-04T18:19:07.375Z,67.60
2018-11-04T18:21:36.634Z,77.58
2018-11-04T18:24:13.112Z,78.75
2018-11-04T18:26:43.861Z,73.62
2018-11-04T18:29:13.614Z,69.17
2018-11-04T18:31:42.402Z,64.20
2018-11-04T18:34:15.909Z,65.87
2018-11-04T18:36:46.646Z,67.00
2018-11-04T18:42:32.030Z,71.77
2018-11-04T18:45:09.101Z,70.28
2018-11-04T18:59:39.702Z,70.35
2018-11-04T19:02:10.806Z,70.87
2018-11-04T19:04:54.582Z,74.45
2018-11-04T19:07:39.850Z,83.72
2018-11-04T19:10:14.807Z,68.37
2018-11-04T19:12:45.942Z,76.95
2018-11-04T19:15:20.332Z,73.45
2018-11-04T19:17:52.475Z,67.20
2018-11-04T19:20:24.867Z,73.37
2018-11-04T19:23:02.982Z,82.25
2018-11-04T19:25:32.977Z,74.30
2018-11-04T19:28:05.303Z,71.28
2018-11-04T19:30:38.572Z,68.62
2018-11-04T19:33:14.451Z,73.80
2018-11-04T19:35:49.156Z,73.35
2018-11-04T19:38:23.000Z,77.17
2018-11-04T19:40:56.529Z,73.00
2018-11-04T20:08:04.651Z,74.60
2018-11-04T20:10:46.014Z,77.75
2018-11-04T20:13:39.384Z,79.42
2018-11-04T20:41:04.042Z,86.02
2018-11-04T20:46:45.952Z,90.65
2018-11-04T20:49:24.422Z,80.05
2018-11-04T20:51:55.776Z,88.78
2018-11-04T20:54:27.930Z,85.97
2018-11-04T20:57:02.743Z,92.47
2018-11-04T20:59:33.053Z,79.47
2018-11-04T21:02:03.855Z,96.82
2018-11-04T21:04:35.013Z,86.75
2018-11-04T21:07:06.336Z,89.65
2018-11-04T21:09:36.672Z,90.95
2018-11-04T21:12:11.097Z,91.60
2018-11-04T21:14:44.768Z,101.50
2018-11-04T21:17:14.459Z,88.52
2018-11-04T21:19:44.966Z,101.18
2018-11-04T21:22:14.433Z,89.03
2018-11-04T21:24:45.226Z,92.67
2018-11-04T21:27:19.610Z,95.75
2018-11-04T21:29:57.754Z,101.78
2018-11-04T21:32:28.270Z,89.25
2018-11-04T21:34:57.384Z,84.32
2018-11-04T21:37:28.309Z,94.67
2018-11-04T21:39:57.490Z,104.60
2018-11-04T21:56:19.248Z,114.75
2018-11-04T21:59:22.760Z,108.20
2018-11-04T22:01:58.002Z,108.45
2018-11-04T22:07:27.159Z,95.70
2018-11-04T22:13:16.613Z,101.85
2018-11-04T22:15:45.699Z,125.38
2018-11-04T22:42:30.652Z,127.70
2018-11-04T22:44:59.617Z,126.60
2018-11-04T22:47:28.235Z,123.90
2018-11-04T22:49:57.282Z,134.80
2018-11-04T22:52:26.556Z,121.22
2018-11-04T22:54:55.529Z,118.60
2018-11-04T22:57:24.524Z,117.53
2018-11-04T22:59:54.481Z,127.40
2018-11-04T23:02:23.451Z,113.62
2018-11-04T23:07:38.850Z,106.45
2018-11-04T23:10:08.156Z,110.12
2018-11-04T23:12:38.553Z,114.65
2018-11-04T23:15:08.035Z,125.47
2018-11-04T23:17:37.124Z,105.32
2018-11-04T23:23:05.999Z,104.15
2018-11-04T23:25:43.185Z,96.70
2018-11-04T23:30:53.583Z,102.65
2018-11-04T23:33:24.965Z,111.57
2018-11-04T23:35:59.125Z,100.58
2018-11-04T23:38:45.168Z,119.20
2018-11-04T23:41:15.820Z,95.25
2018-11-04T23:46:44.453Z,98.17
2018-11-04T23:49:13.792Z,121.80
2018-11-04T23:51:43.225Z,104.63
2018-11-04T23:54:17.264Z,102.75
2018-11-04T23:56:51.843Z,101.15
2018-11-04T23:59:21.012Z,108.95
